Coos Bay, OR (97420)

3:29 AM PDT on August 20, 2014 (GMT -0700)
Red Dyke Road | Change Station
CLOSE
Current Station
Personal Weather Station
Location: Coos Bay, OR
Elevation: 39 ft
Nearby Weather Stations

Elev 39 ft 43.33 °N, 124.23 °W | Updated 29 seconds ago

Clear
Clear
61.7 °F
Feels Like 61.7 °F
N
1.2
Wind Variable Wind from West
Gusts 1.2 mph

Today
High -- | Low -- °F
--% Chance of Precip.
Yesterday
High -- | Low -- °F
Precip. -- in
6:27 AM 8:11 PM
Waning Crescent, 22% visible
Pressure 29.96 in
Visibility 9.0 miles
Clouds Overcast 1000 ft
Dew Point 62 °F
Humidity 100%
Rainfall 0.05 in
Snow Depth Not available.
UV 0 out of 12
Pollen 3.50 out of 12
Air Quality Not available.
Flu Activity Not available.
METAR KOTH 201015Z 00000KT 9SM OVC010 16/16 A2996 RMK AO1

More Conditions Fewer Conditions

Pressure 29.96 in
Visibility 9.0 miles
Clouds Overcast 1000 ft
Dew Point 62 °F
Humidity 100%
Rainfall 0.05 in
Snow Depth Not available.
UV 0 out of 12
Pollen 3.50 out of 12
Air Quality Not available.
Flu Activity Not available.
METAR KOTH 201015Z 00000KT 9SM OVC010 16/16 A2996 RMK AO1

More Conditions Fewer Conditions

10-Day Weather Forecast

Almanac

Astronomy

Aug. 20, 2014 Rise Set
Actual Time 6:27 AM PDT 8:11 PM PDT
Civil Twilight 5:57 AM PDT 8:42 PM PDT
Nautical Twilight 5:20 AM PDT 9:18 PM PDT
Astronomical Twilight 4:40 AM PDT 9:58 PM PDT
Moon 2:09 AM PDT 5:04 PM PDT
Length of Visible Light 14h 44m
Length of Day
13h 44m
Tomorrow will be 2m 42s shorter.
Waning Crescent, 22% of the Moon is Illuminated
Today
Waning Crescent
Aug 25
New
Sep 2
First Quarter
Sep 8
Full
Sep 15
Last Quarter

Today's Extremes

State Highs State Lows

Community

WunderPhotos

Upload Photos

1,745,604 photos uploaded!

Nearby

Snow Depth

Station Depth Elevation
Holland Meadows 0 in 4900 ft
Bigelow Camp 0 in 5120 ft
Diamond Lake 1 in 5315 ft
Annie Springs 0 in 6020 ft
Salt Creek Falls 0 in 4000 ft

Earthquake Activity

City Distance Mag. Time & Date
Crescent City, California 162 miles 2.8 2:15 PM PDT
2014-08-15
Minimum magnitude displayed is 2.5.

Coastal Water Temperatures

Place Temperature
Port Orford, OR 48.9 °F
Charleston, OR 53.1 °F
South Beach, OR 57.0 °F

Nearby Weather Stations